Time;durP1;ratioP1;P1;durP2;ratioP2;P2;SDS_P1;SDS_P2;PMS_P1;PMS_P2;Temp;Humidity;BMP_temperature;BMP_pressure;BME280_temperature;BME280_humidity;BME280_pressure;Samples;Min_cycle;Max_cycle;Signal;HPM_P1;HPM_P2
2022/04/30 00:02:17;;;;;;;19.08;10.50;;;;;;;14.06;86.89;94893.78;5113312;28;20262;-61
2022/04/30 00:04:44;;;;;;;12.87;10.47;;;;;;;13.98;89.12;94873.25;5113301;28;20626;-62
2022/04/30 00:07:14;;;;;;;12.77;10.13;;;;;;;13.94;92.03;94856.59;5114908;27;20273;-60
2022/04/30 00:09:42;;;;;;;13.90;10.18;;;;;;;13.97;92.42;94851.19;5113194;28;20237;-62
2022/04/30 00:12:09;;;;;;;14.63;10.87;;;;;;;14.07;90.01;94869.81;5113380;28;20698;-61
2022/04/30 00:14:35;;;;;;;12.75;9.73;;;;;;;14.06;88.49;94883.53;5114390;28;20638;-61
2022/04/30 00:17:01;;;;;;;15.20;10.77;;;;;;;13.97;88.06;94879.31;5114728;28;20287;-62
2022/04/30 00:19:28;;;;;;;13.10;10.43;;;;;;;13.93;89.22;94870.34;5113179;28;20188;-62
2022/04/30 00:21:54;;;;;;;10.70;9.27;;;;;;;14.07;86.74;94900.50;5114591;28;20215;-61
2022/04/30 00:24:20;;;;;;;15.50;10.33;;;;;;;13.87;90.27;94860.69;5114191;28;20229;-61
2022/04/30 00:26:46;;;;;;;14.32;10.48;;;;;;;13.96;89.75;94864.91;5103880;22;20255;-62
2022/04/30 00:29:11;;;;;;;12.60;9.87;;;;;;;14.05;88.78;94884.50;5093794;28;20212;-62
2022/04/30 00:31:37;;;;;;;13.60;10.45;;;;;;;14.03;90.41;94865.97;5093930;28;20208;-62
2022/04/30 00:34:03;;;;;;;14.63;10.27;;;;;;;14.02;89.57;94875.38;5093706;28;20251;-62
2022/04/30 00:36:29;;;;;;;11.73;9.57;;;;;;;13.99;90.62;94862.91;5094077;28;20191;-61
2022/04/30 00:38:54;;;;;;;12.70;9.93;;;;;;;13.93;91.96;94857.56;5093550;28;20604;-61
2022/04/30 00:41:21;;;;;;;12.30;9.63;;;;;;;13.91;90.09;94874.78;5058888;28;20223;-62
2022/04/30 00:43:51;;;;;;;13.33;11.23;;;;;;;13.90;92.35;94852.72;5093695;28;20208;-61
2022/04/30 00:46:19;;;;;;;14.43;10.87;;;;;;;13.56;90.98;94856.81;5093979;28;20678;-61
2022/04/30 00:48:45;;;;;;;13.17;11.10;;;;;;;13.56;91.85;94849.16;5093275;28;20202;-61
2022/04/30 00:51:13;;;;;;;15.60;11.93;;;;;;;13.56;92.09;94852.53;5093217;28;20187;-61
2022/04/30 00:53:40;;;;;;;16.93;11.27;;;;;;;13.66;91.92;94855.84;5103971;22;20185;-63
2022/04/30 00:56:09;;;;;;;15.70;11.37;;;;;;;13.65;91.68;94856.78;5134331;27;20170;-61
2022/04/30 00:58:37;;;;;;;14.47;10.97;;;;;;;13.69;91.77;94849.63;5133882;27;20206;-60
2022/04/30 01:01:04;;;;;;;18.93;11.50;;;;;;;13.67;94.19;94837.03;5133797;27;20199;-62
2022/04/30 01:03:30;;;;;;;16.47;12.80;;;;;;;13.71;93.81;94833.22;5134198;27;20203;-61
2022/04/30 01:05:58;;;;;;;17.53;13.17;;;;;;;13.75;92.86;94847.31;5115338;27;20764;-61
2022/04/30 01:08:27;;;;;;;16.30;12.17;;;;;;;13.78;94.54;94831.69;5133654;27;20672;-61
2022/04/30 01:10:54;;;;;;;15.53;12.00;;;;;;;13.96;92.52;94854.69;5133799;27;20179;-61
2022/04/30 01:13:20;;;;;;;16.37;11.57;;;;;;;13.81;93.85;94840.81;5133829;27;20198;-60
2022/04/30 01:15:46;;;;;;;16.90;12.23;;;;;;;13.79;92.89;94858.03;5133713;27;20621;-61
2022/04/30 01:18:12;;;;;;;14.60;11.87;;;;;;;13.95;92.95;94858.22;5133648;27;20283;-61
2022/04/30 01:20:42;;;;;;;14.25;11.43;;;;;;;13.93;94.64;94832.00;5133497;27;20231;-61
2022/04/30 01:23:09;;;;;;;13.70;10.33;;;;;;;13.68;95.72;94835.25;5133388;27;20205;-61
2022/04/30 01:25:37;;;;;;;14.10;10.53;;;;;;;13.67;96.50;94831.91;5133461;27;20214;-61
2022/04/30 01:28:03;;;;;;;12.23;10.23;;;;;;;13.70;95.26;94841.00;5133539;27;20198;-60
2022/04/30 01:30:29;;;;;;;14.57;10.77;;;;;;;13.65;96.62;94833.00;5114913;27;20183;-61
2022/04/30 01:38:23;;;;;;;15.07;11.10;;;;;;;13.20;97.31;94823.56;5133412;27;20729;-61
2022/04/30 01:40:48;;;;;;;12.07;10.27;;;;;;;13.25;97.30;94830.78;5115119;27;20183;-62
2022/04/30 01:43:15;;;;;;;12.67;10.77;;;;;;;13.21;97.45;94826.91;5133302;27;20637;-60
2022/04/30 01:45:44;;;;;;;12.43;10.20;;;;;;;13.15;98.14;94835.91;5133069;27;20203;-62
2022/04/30 01:48:13;;;;;;;16.63;12.07;;;;;;;13.20;96.99;94841.44;5133497;27;20232;-61
2022/04/30 01:50:40;;;;;;;14.37;11.63;;;;;;;13.21;96.78;94830.25;5133090;27;20239;-60
2022/04/30 01:53:06;;;;;;;17.77;10.80;;;;;;;13.09;97.01;94838.25;5114935;27;20260;-61
2022/04/30 01:55:32;;;;;;;14.70;11.27;;;;;;;13.07;97.74;94835.03;5133070;27;20674;-60
2022/04/30 01:57:57;;;;;;;12.70;10.83;;;;;;;13.14;98.18;94834.34;5132959;27;20203;-61
2022/04/30 02:00:23;;;;;;;14.90;12.10;;;;;;;13.12;96.91;94836.22;5133404;27;20171;-62
2022/04/30 02:02:50;;;;;;;14.67;10.90;;;;;;;13.16;96.82;94832.44;5133399;27;20195;-60
2022/04/30 02:05:17;;;;;;;12.23;10.70;;;;;;;13.26;94.98;94855.38;5133334;27;20281;-63
2022/04/30 02:07:51;;;;;;;12.87;10.27;;;;;;;13.13;96.76;94842.91;5132988;27;20203;-60
2022/04/30 02:10:20;;;;;;;13.30;10.33;;;;;;;13.04;95.95;94840.41;5133157;27;20200;-61
2022/04/30 02:12:46;;;;;;;12.83;10.27;;;;;;;13.04;96.72;94835.31;5133130;27;20195;-62
2022/04/30 02:15:14;;;;;;;14.33;10.00;;;;;;;12.98;97.20;94836.66;5133135;27;20282;-61
2022/04/30 02:17:40;;;;;;;13.73;10.27;;;;;;;12.98;98.73;94831.53;5132927;27;20558;-60
2022/04/30 02:20:24;;;;;;;12.53;8.87;;;;;;;13.09;97.00;94839.03;5132887;27;20183;-62
2022/04/30 02:22:52;;;;;;;14.40;10.43;;;;;;;12.96;96.77;94835.97;5132946;27;20197;-62
2022/04/30 02:25:19;;;;;;;12.17;10.03;;;;;;;12.88;99.91;94823.13;5132717;27;20198;-61
2022/04/30 02:27:51;;;;;;;12.03;9.13;;;;;;;12.93;98.95;94825.25;5132865;27;20266;-61
2022/04/30 02:30:18;;;;;;;11.73;9.03;;;;;;;12.78;99.43;94826.63;5132628;28;20191;-62
2022/04/30 02:32:48;;;;;;;12.03;9.07;;;;;;;12.82;99.55;94818.56;5132702;28;20198;-61
2022/04/30 02:35:24;;;;;;;11.17;9.60;;;;;;;12.94;97.70;94827.66;5133859;27;20389;-60
2022/04/30 02:37:50;;;;;;;13.80;9.63;;;;;;;12.93;100.00;94820.94;5137011;27;20198;-60
2022/04/30 02:40:17;;;;;;;12.17;9.03;;;;;;;12.98;99.97;94821.34;5136822;27;20668;-61
2022/04/30 02:42:44;;;;;;;13.60;10.27;;;;;;;12.83;98.68;94830.38;5136682;27;20696;-61
2022/04/30 02:45:11;;;;;;;14.47;10.47;;;;;;;12.93;98.31;94833.69;5136840;27;20261;-61
2022/04/30 02:47:42;;;;;;;16.37;10.50;;;;;;;12.54;100.00;94827.09;5136848;27;20204;-60
2022/04/30 02:50:10;;;;;;;14.37;11.17;;;;;;;12.48;100.00;94827.66;5127834;22;20227;-61
2022/04/30 02:52:37;;;;;;;15.50;10.93;;;;;;;12.46;100.00;94826.97;5116267;28;20195;-62
2022/04/30 02:55:04;;;;;;;16.07;12.43;;;;;;;12.51;100.00;94823.06;5116278;28;20176;-62
2022/04/30 03:00:34;;;;;;;14.80;10.80;;;;;;;12.12;100.00;94828.38;5116072;28;20618;-61
2022/04/30 03:03:00;;;;;;;15.47;10.80;;;;;;;12.10;100.00;94823.38;5115957;28;20268;-59
2022/04/30 03:05:26;;;;;;;14.03;11.00;;;;;;;12.11;100.00;94821.66;5097424;28;20203;-62
2022/04/30 03:07:52;;;;;;;16.57;11.90;;;;;;;11.99;100.00;94822.72;5115776;28;20207;-61
2022/04/30 03:10:18;;;;;;;13.83;11.07;;;;;;;12.02;100.00;94820.69;5115650;28;20179;-61
2022/04/30 03:12:44;;;;;;;15.33;11.53;;;;;;;12.13;100.00;94823.13;5115530;28;20223;-61
2022/04/30 03:15:10;;;;;;;15.60;11.50;;;;;;;12.29;100.00;94818.28;5097266;28;20666;-61
2022/04/30 03:23:11;;;;;;;18.27;11.83;;;;;;;12.36;100.00;94823.66;5115652;28;20265;-60
2022/04/30 03:25:36;;;;;;;16.63;11.17;;;;;;;12.35;100.00;94822.84;5115404;28;20199;-62
2022/04/30 03:28:02;;;;;;;17.60;11.93;;;;;;;12.48;100.00;94822.56;5096980;28;20207;-64
2022/04/30 03:30:27;;;;;;;17.67;12.10;;;;;;;12.60;100.00;94822.22;5097045;28;20179;-60
2022/04/30 03:32:52;;;;;;;15.77;11.43;;;;;;;12.59;100.00;94825.75;5115335;28;20203;-62
2022/04/30 03:35:18;;;;;;;15.10;11.67;;;;;;;12.64;100.00;94838.09;5115396;28;20259;-60
2022/04/30 03:37:43;;;;;;;17.97;13.87;;;;;;;12.34;100.00;94836.50;5097005;28;20286;-61
2022/04/30 03:40:09;;;;;;;22.70;14.63;;;;;;;11.91;100.00;94837.88;5115433;28;20184;-60
2022/04/30 03:42:35;;;;;;;15.00;11.03;;;;;;;11.70;100.00;94833.69;5115152;28;20670;-61
2022/04/30 03:45:04;;;;;;;14.57;11.23;;;;;;;12.10;100.00;94843.75;5114812;28;20184;-60
2022/04/30 03:47:30;;;;;;;15.90;11.20;;;;;;;12.05;100.00;94842.56;5114811;28;20732;-61
2022/04/30 03:49:55;;;;;;;14.47;10.87;;;;;;;11.69;100.00;94839.75;5115213;28;20187;-61
2022/04/30 03:52:22;;;;;;;13.47;11.00;;;;;;;11.59;100.00;94843.97;5114708;28;20584;-60
2022/04/30 03:54:47;;;;;;;16.70;12.07;;;;;;;11.79;100.00;94842.28;5115441;28;20180;-60
2022/04/30 03:57:13;;;;;;;14.03;11.43;;;;;;;11.75;100.00;94840.94;5114816;28;20264;-60
2022/04/30 03:59:38;;;;;;;15.97;11.17;;;;;;;11.92;100.00;94844.59;5115288;28;20191;-60
2022/04/30 04:02:04;;;;;;;14.93;10.70;;;;;;;12.31;100.00;94853.81;5115033;28;20200;-61
2022/04/30 04:04:30;;;;;;;14.27;10.87;;;;;;;12.28;100.00;94865.09;5115204;28;20579;-61
2022/04/30 04:06:56;;;;;;;13.30;10.23;;;;;;;11.71;100.00;94860.78;5114513;28;20689;-61
2022/04/30 04:09:22;;;;;;;17.97;11.47;;;;;;;11.77;100.00;94859.44;5096456;28;20558;-61
2022/04/30 04:11:48;;;;;;;17.03;11.73;;;;;;;11.57;100.00;94853.47;5114865;28;20194;-64
2022/04/30 04:19:41;;;;;;;12.43;10.47;;;;;;;12.03;100.00;94865.63;5115181;28;20257;-62
2022/04/30 04:22:07;;;;;;;17.33;11.67;;;;;;;11.86;100.00;94856.09;5114601;28;20685;-60
2022/04/30 04:27:23;;;;;;;16.47;12.17;;;;;;;11.79;100.00;94862.66;5114247;28;20599;-60
2022/04/30 04:29:49;;;;;;;15.20;11.47;;;;;;;11.71;100.00;94859.97;5114965;28;20286;-61
2022/04/30 04:32:15;;;;;;;18.60;11.90;;;;;;;11.80;100.00;94870.16;5114074;28;20245;-62
2022/04/30 04:34:40;;;;;;;19.30;13.43;;;;;;;11.71;100.00;94867.63;5114798;28;20184;-64
2022/04/30 04:37:07;;;;;;;17.27;12.67;;;;;;;11.71;100.00;94857.44;5114108;28;20251;-61
2022/04/30 04:39:33;;;;;;;16.27;12.03;;;;;;;11.93;100.00;94864.00;5104111;22;20219;-61
2022/04/30 04:41:58;;;;;;;17.10;11.77;;;;;;;11.94;100.00;94865.63;5113869;28;20200;-62
2022/04/30 04:44:24;;;;;;;19.17;12.63;;;;;;;11.90;100.00;94859.97;5114338;28;20180;-61
2022/04/30 04:46:50;;;;;;;17.03;12.30;;;;;;;12.02;100.00;94864.00;5113904;28;20828;-61
2022/04/30 04:49:16;;;;;;;19.67;13.27;;;;;;;11.99;100.00;94860.94;5114076;28;20184;-61
2022/04/30 04:51:41;;;;;;;19.20;13.03;;;;;;;11.99;100.00;94861.75;5113987;28;20234;-60
2022/04/30 04:54:07;;;;;;;17.40;11.77;;;;;;;11.84;100.00;94868.16;5114009;28;20186;-62
2022/04/30 04:56:33;;;;;;;23.47;16.60;;;;;;;11.66;100.00;94862.09;5104261;28;20290;-61
2022/04/30 04:58:58;;;;;;;17.00;12.13;;;;;;;11.94;100.00;94880.94;5106599;28;20188;-62
2022/04/30 05:01:25;;;;;;;24.17;15.17;;;;;;;11.98;100.00;94879.72;5106222;28;20181;-61
2022/04/30 05:03:51;;;;;;;23.17;16.23;;;;;;;12.07;100.00;94881.47;5112585;28;20190;-61
2022/04/30 05:06:16;;;;;;;16.83;12.17;;;;;;;11.82;100.00;94865.75;5112808;28;20723;-62
2022/04/30 05:08:42;;;;;;;19.67;12.63;;;;;;;11.97;100.00;94878.09;5111893;28;20191;-63
2022/04/30 05:11:08;;;;;;;15.27;11.83;;;;;;;12.31;100.00;94894.63;5112339;28;20180;-63
2022/04/30 05:13:34;;;;;;;16.97;11.83;;;;;;;12.13;100.00;94886.03;5113263;28;20187;-62
2022/04/30 05:15:59;;;;;;;17.37;13.17;;;;;;;12.24;100.00;94891.00;5113298;28;20180;-62
2022/04/30 05:18:25;;;;;;;16.53;11.57;;;;;;;12.47;100.00;94887.22;5113185;28;20206;-62
2022/04/30 05:20:50;;;;;;;14.90;11.77;;;;;;;12.38;100.00;94898.25;5112332;28;20184;-62
2022/04/30 05:23:16;;;;;;;20.17;12.30;;;;;;;12.32;100.00;94893.69;5113108;28;20210;-61
2022/04/30 05:25:41;;;;;;;17.30;11.80;;;;;;;12.61;99.48;94920.78;5113536;28;20696;-61
2022/04/30 05:28:07;;;;;;;15.83;12.00;;;;;;;12.68;99.23;94910.84;5113201;28;20218;-61
2022/04/30 05:30:33;;;;;;;18.73;12.07;;;;;;;12.72;99.80;94901.97;5113730;28;20664;-61
2022/04/30 05:32:59;;;;;;;16.13;12.10;;;;;;;13.00;98.50;94911.31;5113574;28;20203;-62
2022/04/30 05:35:24;;;;;;;15.00;12.07;;;;;;;13.22;97.45;94907.66;5114030;28;20291;-62
2022/04/30 05:37:50;;;;;;;16.70;11.57;;;;;;;13.11;99.44;94890.75;5110395;28;20211;-63
2022/04/30 05:40:16;;;;;;;17.00;11.87;;;;;;;13.19;99.44;94887.53;5111187;28;20183;-61
2022/04/30 05:42:41;;;;;;;15.67;11.70;;;;;;;13.35;97.19;94913.25;5113184;28;20199;-62
2022/04/30 05:45:08;;;;;;;14.80;11.30;;;;;;;13.41;97.58;94910.94;5113103;28;20191;-61
2022/04/30 05:47:33;;;;;;;17.60;12.33;;;;;;;13.50;95.75;94924.63;5112477;28;20195;-62
2022/04/30 05:49:59;;;;;;;17.03;12.73;;;;;;;13.66;98.38;94904.38;5113314;28;20185;-61
2022/04/30 05:52:24;;;;;;;16.90;12.53;;;;;;;13.63;96.05;94924.31;5112861;28;20279;-62
2022/04/30 05:54:49;;;;;;;16.60;12.53;;;;;;;13.91;95.22;94929.25;5112963;28;20207;-61
2022/04/30 05:57:15;;;;;;;21.45;13.15;;;;;;;14.16;95.96;94917.53;5112608;28;20559;-61
2022/04/30 05:59:40;;;;;;;17.10;11.87;;;;;;;14.45;92.36;94951.41;5112734;28;20183;-62
2022/04/30 06:02:06;;;;;;;17.92;12.15;;;;;;;14.69;99.45;94918.34;5112486;28;20190;-63
2022/04/30 06:04:32;;;;;;;15.50;12.05;;;;;;;14.77;94.71;94933.78;5112810;28;20615;-62
2022/04/30 06:06:58;;;;;;;16.80;11.20;;;;;;;14.77;90.78;94954.25;5112767;28;20219;-61
2022/04/30 06:09:24;;;;;;;14.93;11.48;;;;;;;14.83;88.24;94971.56;5112536;28;20209;-60
2022/04/30 06:11:50;;;;;;;15.63;10.37;;;;;;;14.91;82.75;95027.16;5112618;28;20192;-61
2022/04/30 06:14:16;;;;;;;11.23;9.23;;;;;;;15.03;81.47;95010.63;5112854;28;20180;-62
2022/04/30 06:16:41;;;;;;;9.02;8.05;;;;;;;14.71;84.35;94961.72;5112708;28;20198;-62
2022/04/30 06:19:07;;;;;;;12.33;8.03;;;;;;;14.74;79.50;95030.53;5112710;28;20187;-60
2022/04/30 06:21:32;;;;;;;11.82;8.15;;;;;;;14.53;79.05;95010.34;5112390;28;20195;-61
2022/04/30 06:23:58;;;;;;;12.60;9.65;;;;;;;14.74;78.78;95010.06;5112557;28;20187;-61
2022/04/30 06:26:23;;;;;;;15.50;9.30;;;;;;;14.68;81.15;94969.69;5113091;28;20191;-62
2022/04/30 06:28:49;;;;;;;12.82;10.00;;;;;;;14.47;83.03;94954.63;5115527;28;20236;-61
2022/04/30 06:31:15;;;;;;;12.45;9.23;;;;;;;14.25;84.11;94937.13;5115378;28;20187;-61
2022/04/30 06:33:40;;;;;;;13.13;9.83;;;;;;;14.40;83.41;94958.72;5118486;28;20194;-61
2022/04/30 06:36:07;;;;;;;17.57;11.17;;;;;;;14.28;83.99;94945.34;5113210;22;20231;-62
2022/04/30 06:38:33;;;;;;;15.15;10.73;;;;;;;14.59;82.73;94965.44;5075650;28;20193;-62
2022/04/30 06:40:59;;;;;;;14.57;10.03;;;;;;;14.59;81.85;94975.69;5074861;28;20631;-62
2022/04/30 06:43:24;;;;;;;14.38;10.10;;;;;;;14.67;81.09;94980.88;5072663;28;20200;-61
2022/04/30 06:45:49;;;;;;;10.95;9.38;;;;;;;14.75;80.49;94986.88;5072357;28;20674;-62
2022/04/30 06:48:15;;;;;;;11.82;8.75;;;;;;;14.63;81.32;94977.81;5072273;28;20197;-61
2022/04/30 06:50:41;;;;;;;16.55;12.48;;;;;;;14.42;83.73;94933.00;5071808;28;20176;-61
2022/04/30 06:58:53;;;;;;;14.00;8.98;;;;;;;14.99;81.06;94976.81;5071860;28;20281;-61
2022/04/30 07:04:05;;;;;;;11.55;8.85;;;;;;;14.96;79.80;94979.69;5073229;28;20249;-62
2022/04/30 07:06:34;;;;;;;12.52;9.85;;;;;;;15.00;80.61;94957.97;5073611;28;20339;-61
2022/04/30 07:09:05;;;;;;;13.95;9.27;;;;;;;15.04;80.45;94966.16;5073339;28;20260;-62
2022/04/30 07:11:31;;;;;;;15.18;10.00;;;;;;;15.03;81.34;94960.22;5072940;28;20213;-62
2022/04/30 07:13:57;;;;;;;12.98;9.88;;;;;;;15.19;81.25;94966.41;5055272;28;20188;-62
2022/04/30 07:16:23;;;;;;;11.13;8.90;;;;;;;15.31;80.80;94967.78;5056258;28;20237;-62
2022/04/30 07:18:48;;;;;;;11.45;8.30;;;;;;;15.40;78.05;95005.28;5056221;28;20189;-61
2022/04/30 07:21:14;;;;;;;14.70;9.85;;;;;;;15.33;79.04;94979.47;5075333;28;20189;-62
2022/04/30 07:23:40;;;;;;;15.00;8.40;;;;;;;15.28;79.51;94979.13;5077355;28;20246;-62
2022/04/30 07:26:05;;;;;;;10.30;8.40;;;;;;;15.30;79.06;94981.53;5077365;28;20255;-61
2022/04/30 07:28:35;;;;;;;10.70;8.70;;;;;;;15.34;77.77;94990.50;5058206;28;20220;-61
2022/04/30 07:31:01;;;;;;;11.88;8.48;;;;;;;15.49;77.56;94996.75;5076056;28;20185;-61
2022/04/30 07:33:26;;;;;;;11.52;8.85;;;;;;;15.57;77.46;94994.22;5058014;28;20201;-62
2022/04/30 07:35:53;;;;;;;12.02;9.00;;;;;;;15.51;80.65;94941.03;5075516;28;20273;-61
2022/04/30 07:38:18;;;;;;;9.40;7.87;;;;;;;15.74;78.92;94971.09;5075475;28;20208;-65
2022/04/30 07:40:44;;;;;;;13.75;7.80;;;;;;;15.92;79.00;94964.09;5075246;28;20185;-62
2022/04/30 07:43:10;;;;;;;9.98;7.90;;;;;;;15.93;77.99;94990.56;5073167;28;20196;-61
2022/04/30 07:45:36;;;;;;;10.32;8.52;;;;;;;15.98;76.73;94992.66;5072304;28;20193;-62
2022/04/30 07:48:02;;;;;;;10.40;8.02;;;;;;;16.11;75.48;95009.22;5073986;28;20193;-62
2022/04/30 07:50:35;;;;;;;13.07;9.20;;;;;;;16.31;74.35;95010.59;5056620;28;20670;-63
2022/04/30 07:53:01;;;;;;;9.15;7.95;;;;;;;16.32;73.86;95017.31;5074593;28;20228;-61
2022/04/30 07:55:28;;;;;;;8.88;7.45;;;;;;;16.40;74.59;94996.81;5074404;28;20184;-62
2022/04/30 07:57:54;;;;;;;8.65;7.32;;;;;;;16.67;72.12;95052.25;5075100;28;20249;-62
2022/04/30 08:00:19;;;;;;;9.35;7.07;;;;;;;16.52;69.80;95064.88;5074454;28;20574;-61
2022/04/30 08:02:46;;;;;;;8.63;7.15;;;;;;;16.73;69.58;95054.19;5075254;28;20209;-62
2022/04/30 08:05:12;;;;;;;9.48;8.07;;;;;;;16.58;71.01;95020.63;5074286;28;20189;-63
2022/04/30 08:07:37;;;;;;;10.40;7.90;;;;;;;16.54;71.38;95018.53;5074958;28;20208;-62
2022/04/30 08:10:03;;;;;;;12.60;8.25;;;;;;;16.66;70.14;95033.47;5074654;28;20647;-62
2022/04/30 08:12:29;;;;;;;9.55;7.25;;;;;;;16.62;67.95;95065.56;5074381;28;20193;-62
2022/04/30 08:14:54;;;;;;;11.75;8.07;;;;;;;16.68;70.26;95011.00;5072101;28;20196;-62
2022/04/30 08:17:20;;;;;;;9.93;7.68;;;;;;;17.00;69.55;95027.44;5081923;22;20721;-61
2022/04/30 08:19:45;;;;;;;8.75;7.38;;;;;;;17.07;71.43;94995.03;5074457;28;20679;-63
2022/04/30 08:22:11;;;;;;;9.38;7.30;;;;;;;17.17;69.16;95034.97;5074460;28;20263;-62
2022/04/30 08:24:36;;;;;;;11.75;8.00;;;;;;;17.05;69.58;95017.50;5074386;28;20180;-62
2022/04/30 08:27:02;;;;;;;8.95;7.53;;;;;;;17.18;69.70;95017.81;5074760;28;20228;-61
2022/04/30 08:29:28;;;;;;;9.73;6.82;;;;;;;17.29;68.04;95056.81;5075015;28;20185;-61
2022/04/30 08:31:57;;;;;;;7.88;6.97;;;;;;;17.00;67.27;95053.13;5056614;28;20217;-62
2022/04/30 08:34:22;;;;;;;10.18;6.88;;;;;;;16.94;65.36;95089.72;5073541;28;20190;-62
2022/04/30 08:36:49;;;;;;;9.82;7.55;;;;;;;16.77;68.04;95017.78;5074332;28;20631;-65
2022/04/30 08:39:15;;;;;;;12.85;6.93;;;;;;;16.74;68.61;95012.97;5056041;28;20214;-62
2022/04/30 08:41:42;;;;;;;10.32;7.55;;;;;;;16.86;67.29;95041.72;5055839;28;20208;-62
2022/04/30 08:44:14;;;;;;;10.18;7.38;;;;;;;17.15;66.91;95036.91;5073776;28;20180;-62
2022/04/30 08:46:41;;;;;;;9.23;6.82;;;;;;;17.14;68.13;95021.66;5055992;28;20254;-63
2022/04/30 08:49:07;;;;;;;10.10;7.80;;;;;;;16.90;67.90;95021.66;5073836;28;20180;-63
2022/04/30 08:51:32;;;;;;;7.38;6.53;;;;;;;16.94;69.00;94999.81;5072265;28;20197;-62
2022/04/30 08:53:58;;;;;;;14.07;6.78;;;;;;;16.87;69.28;94986.03;5072856;28;20172;-62
2022/04/30 08:56:24;;;;;;;6.95;6.22;;;;;;;16.90;70.01;94975.41;5073706;28;20181;-61
2022/04/30 08:58:51;;;;;;;8.05;6.07;;;;;;;16.72;70.31;94968.66;5073575;28;20618;-62
2022/04/30 09:01:17;;;;;;;9.70;5.82;;;;;;;16.81;70.19;94971.25;5073863;28;20275;-62
2022/04/30 09:03:46;;;;;;;7.75;5.97;;;;;;;16.97;71.32;94950.72;5073707;28;20212;-62
2022/04/30 09:06:17;;;;;;;10.30;5.88;;;;;;;16.85;69.90;94980.25;5072911;28;20266;-62
2022/04/30 09:08:51;;;;;;;7.97;5.80;;;;;;;16.93;69.78;94975.09;5055310;28;20177;-61
2022/04/30 09:11:17;;;;;;;6.07;5.47;;;;;;;16.81;69.84;94964.34;5073316;28;20189;-61
2022/04/30 09:13:44;;;;;;;7.07;5.18;;;;;;;16.73;70.07;94965.13;5072810;28;20183;-62
2022/04/30 09:16:20;;;;;;;7.15;5.55;;;;;;;17.22;68.15;95006.25;5073127;28;20177;-62
2022/04/30 09:18:48;;;;;;;7.40;4.93;;;;;;;17.35;67.39;95022.00;5055526;28;20188;-62
2022/04/30 09:21:15;;;;;;;6.03;4.65;;;;;;;17.63;67.41;95009.59;5073281;28;20192;-63
2022/04/30 09:23:42;;;;;;;8.50;4.00;;;;;;;17.58;66.32;95026.31;5072719;28;20620;-62
2022/04/30 09:26:08;;;;;;;4.43;3.95;;;;;;;17.67;65.53;95034.84;5073240;28;20706;-61
2022/04/30 09:28:38;;;;;;;6.63;3.65;;;;;;;17.85;63.41;95074.03;5072924;28;20200;-61
2022/04/30 09:31:06;;;;;;;4.57;3.80;;;;;;;18.01;62.33;95102.28;5109297;22;20258;-61
2022/04/30 09:33:33;;;;;;;7.60;3.40;;;;;;;17.94;62.60;95091.03;5113429;28;20191;-62
2022/04/30 09:38:51;;;;;;;4.90;3.10;;;;;;;18.75;61.78;95093.38;5113145;28;20171;-62
2022/04/30 09:41:24;;;;;;;3.28;2.90;;;;;;;19.21;60.46;95113.88;5113845;28;20208;-62
2022/04/30 09:44:04;;;;;;;4.50;3.25;;;;;;;19.24;56.20;95162.53;5113238;28;20232;-62
2022/04/30 09:46:33;;;;;;;3.70;3.30;;;;;;;19.03;55.24;95164.88;5112727;28;20187;-60
2022/04/30 09:54:29;;;;;;;8.48;3.42;;;;;;;19.32;56.82;95097.22;5098319;28;20194;-61
2022/04/30 09:56:58;;;;;;;4.60;3.08;;;;;;;19.71;54.33;95144.34;5095090;28;20278;-64
2022/04/30 09:59:26;;;;;;;3.58;3.28;;;;;;;19.88;54.39;95130.31;5113171;28;20184;-62
2022/04/30 10:01:53;;;;;;;7.07;3.10;;;;;;;20.00;52.96;95148.78;5112968;28;20238;-63
2022/04/30 10:04:19;;;;;;;5.32;3.30;;;;;;;20.17;52.28;95147.66;5113140;28;20642;-62
2022/04/30 10:06:50;;;;;;;3.40;3.10;;;;;;;20.48;51.37;95160.47;5113186;28;20239;-63
2022/04/30 10:09:22;;;;;;;3.17;2.88;;;;;;;20.79;53.76;95086.91;5113349;28;20605;-61
2022/04/30 10:11:56;;;;;;;4.30;3.28;;;;;;;21.14;51.82;95139.66;5112721;28;20278;-62
2022/04/30 10:14:47;;;;;;;3.92;3.42;;;;;;;21.21;50.42;95152.66;5094757;28;20187;-62
2022/04/30 10:17:16;;;;;;;5.05;3.20;;;;;;;20.85;51.46;95104.28;5112517;28;20196;-62
2022/04/30 10:20:12;;;;;;;4.05;3.67;;;;;;;21.29;51.31;95106.00;5118309;22;20311;-63
2022/04/30 10:22:49;;;;;;;3.75;3.33;;;;;;;21.61;51.93;95093.34;5029068;28;20236;-62
2022/04/30 10:25:14;;;;;;;5.22;3.58;;;;;;;21.41;49.46;95143.31;5092177;28;20164;-62
2022/04/30 10:27:43;;;;;;;8.20;3.85;;;;;;;20.71;50.88;95086.22;5092697;28;20206;-63
2022/04/30 10:30:19;;;;;;;4.80;3.88;;;;;;;21.20;56.75;94907.94;5091825;28;20251;-60
2022/04/30 10:32:56;;;;;;;7.43;3.70;;;;;;;20.96;56.54;94957.44;5073420;28;20295;-64
2022/04/30 10:35:33;;;;;;;4.05;3.65;;;;;;;20.59;54.94;95007.56;5091569;28;20179;-63
2022/04/30 10:38:11;;;;;;;6.78;3.78;;;;;;;20.73;59.70;94880.91;5097192;22;20206;-64
2022/04/30 10:40:41;;;;;;;3.53;3.20;;;;;;;20.71;57.84;94941.50;5071358;28;20187;-63
2022/04/30 10:43:17;;;;;;;3.38;2.97;;;;;;;20.96;54.64;94998.81;5071279;28;20196;-63
2022/04/30 10:45:42;;;;;;;3.90;3.60;;;;;;;20.90;52.56;95062.38;5053199;28;20205;-63
2022/04/30 10:48:09;;;;;;;4.90;3.40;;;;;;;20.55;52.88;95045.06;5071521;28;20205;-64
2022/04/30 10:50:34;;;;;;;3.92;3.55;;;;;;;20.63;53.66;95026.88;5071409;28;20216;-64
2022/04/30 10:53:01;;;;;;;4.47;3.42;;;;;;;20.53;53.29;95026.38;5071116;28;20293;-63
2022/04/30 10:55:27;;;;;;;5.90;3.40;;;;;;;20.82;55.36;94982.38;5071431;28;20200;-64
2022/04/30 10:57:53;;;;;;;4.22;3.70;;;;;;;20.71;59.09;94889.81;5075131;28;20201;-63
2022/04/30 11:00:21;;;;;;;3.95;3.53;;;;;;;21.08;53.52;95034.34;5075064;28;20200;-61
2022/04/30 11:02:48;;;;;;;5.05;3.70;;;;;;;21.20;55.46;94973.41;5075123;28;20193;-63
2022/04/30 11:05:24;;;;;;;4.63;3.33;;;;;;;20.86;51.18;95084.41;5075128;28;20260;-62
2022/04/30 11:07:50;;;;;;;4.28;3.80;;;;;;;20.84;55.59;94965.72;5083755;22;20236;-65
2022/04/30 11:10:16;;;;;;;5.65;3.53;;;;;;;20.76;61.23;94817.72;5074851;28;20264;-62
2022/04/30 11:12:41;;;;;;;5.82;4.03;;;;;;;20.46;55.77;94976.44;5057064;28;20316;-63
2022/04/30 11:15:09;;;;;;;3.50;3.20;;;;;;;20.64;53.59;95010.41;5056318;28;20177;-62
2022/04/30 11:17:43;;;;;;;7.05;4.10;;;;;;;20.72;54.92;94997.38;5074863;28;20228;-63
2022/04/30 11:20:09;;;;;;;5.80;3.45;;;;;;;20.73;56.52;94957.63;5082208;22;20278;-64
2022/04/30 11:22:35;;;;;;;5.03;3.92;;;;;;;20.44;57.09;94934.47;5074459;28;20185;-62
2022/04/30 11:25:00;;;;;;;4.20;3.63;;;;;;;20.43;60.01;94853.59;5074443;28;20272;-63
2022/04/30 11:27:31;;;;;;;3.45;3.15;;;;;;;20.58;59.91;94869.81;5074221;28;20216;-63
2022/04/30 11:29:56;;;;;;;3.20;2.88;;;;;;;20.54;56.81;94953.06;5074976;28;20189;-63
2022/04/30 11:32:24;;;;;;;3.60;3.15;;;;;;;20.80;54.89;94997.25;5074490;28;20197;-62
2022/04/30 11:34:50;;;;;;;3.58;2.95;;;;;;;20.86;56.42;94953.41;5074884;28;20244;-63
2022/04/30 11:37:16;;;;;;;3.83;3.20;;;;;;;20.77;53.17;95023.47;5074246;28;20295;-63
2022/04/30 11:39:41;;;;;;;2.97;2.60;;;;;;;20.82;52.50;95044.41;5074713;28;20196;-64
2022/04/30 11:42:07;;;;;;;3.47;2.67;;;;;;;20.60;51.30;95069.41;5074209;28;20204;-64
2022/04/30 11:44:33;;;;;;;4.03;3.50;;;;;;;20.32;57.85;94910.13;5074496;28;20181;-62
2022/04/30 11:46:58;;;;;;;3.90;3.10;;;;;;;20.07;53.48;95021.41;5074256;28;20251;-63
2022/04/30 11:49:26;;;;;;;3.42;3.13;;;;;;;19.90;58.43;94882.38;5073913;28;20708;-62
2022/04/30 11:51:55;;;;;;;3.33;3.03;;;;;;;19.88;55.83;94934.19;5073918;28;20304;-62
2022/04/30 11:54:23;;;;;;;3.20;2.80;;;;;;;19.95;60.35;94847.34;5074414;28;20208;-62
2022/04/30 11:56:49;;;;;;;5.35;2.97;;;;;;;20.00;59.43;94870.00;5073870;28;20197;-63
2022/04/30 11:59:15;;;;;;;3.45;2.97;;;;;;;20.12;60.06;94860.03;5073921;28;20191;-62
2022/04/30 12:01:44;;;;;;;5.07;3.28;;;;;;;20.32;58.66;94890.22;5073796;28;20200;-63